sensor_id;sensor_type;location;lat;lon;timestamp;pressure;altitude;pressure_sealevel;temperature;humidity
58975;BME280;44751;52.236;5.178;2023-03-13T00:00:52;99960.34;;;8.73;100.00
58975;BME280;44751;52.236;5.178;2023-03-13T00:03:21;99945.88;;;8.74;100.00
58975;BME280;44751;52.236;5.178;2023-03-13T00:05:47;99951.91;;;8.76;100.00
58975;BME280;44751;52.236;5.178;2023-03-13T00:08:14;99938.63;;;8.75;100.00
58975;BME280;44751;52.236;5.178;2023-03-13T00:10:41;99938.91;;;8.80;100.00
58975;BME280;44751;52.236;5.178;2023-03-13T00:13:08;99932.88;;;8.78;100.00
58975;BME280;44751;52.236;5.178;2023-03-13T00:15:35;99925.97;;;8.69;100.00
58975;BME280;44751;52.236;5.178;2023-03-13T00:18:01;99950.97;;;8.69;100.00
58975;BME280;44751;52.236;5.178;2023-03-13T00:20:28;99938.22;;;8.93;100.00
58975;BME280;44751;52.236;5.178;2023-03-13T00:22:54;99934.19;;;9.04;100.00
58975;BME280;44751;52.236;5.178;2023-03-13T00:25:21;99935.84;;;9.05;100.00
58975;BME280;44751;52.236;5.178;2023-03-13T00:27:47;99933.59;;;9.09;100.00
58975;BME280;44751;52.236;5.178;2023-03-13T00:30:14;99929.97;;;9.16;100.00
58975;BME280;44751;52.236;5.178;2023-03-13T00:32:42;99933.09;;;10.06;100.00
58975;BME280;44751;52.236;5.178;2023-03-13T00:35:11;99873.25;;;11.61;100.00
58975;BME280;44751;52.236;5.178;2023-03-13T00:37:37;99866.50;;;9.29;100.00
58975;BME280;44751;52.236;5.178;2023-03-13T00:40:05;99854.81;;;9.79;100.00
58975;BME280;44751;52.236;5.178;2023-03-13T00:42:32;99843.97;;;9.65;100.00
58975;BME280;44751;52.236;5.178;2023-03-13T00:44:58;99845.41;;;9.61;100.00
58975;BME280;44751;52.236;5.178;2023-03-13T00:47:25;99840.94;;;9.82;100.00
58975;BME280;44751;52.236;5.178;2023-03-13T00:49:51;99827.00;;;9.72;100.00
58975;BME280;44751;52.236;5.178;2023-03-13T00:52:17;99811.25;;;9.68;100.00
58975;BME280;44751;52.236;5.178;2023-03-13T00:54:44;99810.66;;;9.80;100.00
58975;BME280;44751;52.236;5.178;2023-03-13T00:57:12;99795.72;;;9.71;100.00
58975;BME280;44751;52.236;5.178;2023-03-13T00:59:38;99793.22;;;9.69;100.00
58975;BME280;44751;52.236;5.178;2023-03-13T01:02:05;99790.56;;;9.76;100.00
58975;BME280;44751;52.236;5.178;2023-03-13T01:04:31;99779.97;;;9.74;100.00
58975;BME280;44751;52.236;5.178;2023-03-13T01:06:57;99781.22;;;9.72;100.00
58975;BME280;44751;52.236;5.178;2023-03-13T01:09:24;99777.72;;;9.78;100.00
58975;BME280;44751;52.236;5.178;2023-03-13T01:11:50;99782.75;;;9.88;100.00
58975;BME280;44751;52.236;5.178;2023-03-13T01:14:18;99769.88;;;9.90;100.00
58975;BME280;44751;52.236;5.178;2023-03-13T01:16:45;99761.94;;;9.68;100.00
58975;BME280;44751;52.236;5.178;2023-03-13T01:19:14;99754.53;;;9.77;100.00
58975;BME280;44751;52.236;5.178;2023-03-13T01:21:42;99758.44;;;9.74;100.00
58975;BME280;44751;52.236;5.178;2023-03-13T01:24:09;99745.63;;;9.83;100.00
58975;BME280;44751;52.236;5.178;2023-03-13T01:26:36;99740.63;;;9.80;100.00
58975;BME280;44751;52.236;5.178;2023-03-13T01:29:03;99726.78;;;9.90;100.00
58975;BME280;44751;52.236;5.178;2023-03-13T01:31:34;99707.94;;;9.90;100.00
58975;BME280;44751;52.236;5.178;2023-03-13T01:34:03;99708.63;;;10.32;100.00
58975;BME280;44751;52.236;5.178;2023-03-13T01:36:30;99695.75;;;10.01;100.00
58975;BME280;44751;52.236;5.178;2023-03-13T01:38:59;99690.38;;;10.14;100.00
58975;BME280;44751;52.236;5.178;2023-03-13T01:41:27;99692.47;;;10.19;100.00
58975;BME280;44751;52.236;5.178;2023-03-13T01:43:54;99692.22;;;10.14;100.00
58975;BME280;44751;52.236;5.178;2023-03-13T01:46:25;99672.31;;;10.08;100.00
58975;BME280;44751;52.236;5.178;2023-03-13T01:49:08;99681.25;;;10.08;100.00
58975;BME280;44751;52.236;5.178;2023-03-13T01:51:41;99676.88;;;10.07;100.00
58975;BME280;44751;52.236;5.178;2023-03-13T01:54:15;99667.16;;;10.13;100.00
58975;BME280;44751;52.236;5.178;2023-03-13T01:56:56;99665.91;;;10.16;100.00
58975;BME280;44751;52.236;5.178;2023-03-13T01:59:26;99654.50;;;10.20;100.00
58975;BME280;44751;52.236;5.178;2023-03-13T02:01:56;99638.34;;;10.27;100.00
58975;BME280;44751;52.236;5.178;2023-03-13T02:04:26;99635.81;;;10.12;100.00
58975;BME280;44751;52.236;5.178;2023-03-13T02:06:59;99638.31;;;10.07;100.00
58975;BME280;44751;52.236;5.178;2023-03-13T02:09:30;99622.16;;;9.93;100.00
58975;BME280;44751;52.236;5.178;2023-03-13T02:12:02;99613.88;;;9.95;100.00
58975;BME280;44751;52.236;5.178;2023-03-13T02:14:31;99598.72;;;9.87;100.00
58975;BME280;44751;52.236;5.178;2023-03-13T02:16:59;99603.69;;;10.04;100.00
58975;BME280;44751;52.236;5.178;2023-03-13T02:19:32;99595.63;;;9.97;100.00
58975;BME280;44751;52.236;5.178;2023-03-13T02:24:55;99577.16;;;10.14;100.00
58975;BME280;44751;52.236;5.178;2023-03-13T02:27:24;99584.84;;;10.17;100.00
58975;BME280;44751;52.236;5.178;2023-03-13T02:29:51;99579.25;;;10.19;100.00
58975;BME280;44751;52.236;5.178;2023-03-13T02:32:18;99565.56;;;10.07;100.00
58975;BME280;44751;52.236;5.178;2023-03-13T02:34:49;99563.06;;;10.12;100.00
58975;BME280;44751;52.236;5.178;2023-03-13T02:37:18;99563.28;;;10.11;100.00
58975;BME280;44751;52.236;5.178;2023-03-13T02:39:49;99557.47;;;10.14;100.00
58975;BME280;44751;52.236;5.178;2023-03-13T02:42:18;99559.72;;;10.30;100.00
58975;BME280;44751;52.236;5.178;2023-03-13T02:44:46;99540.25;;;10.28;100.00
58975;BME280;44751;52.236;5.178;2023-03-13T02:47:23;99545.47;;;10.23;100.00
58975;BME280;44751;52.236;5.178;2023-03-13T02:49:50;99543.38;;;10.25;100.00
58975;BME280;44751;52.236;5.178;2023-03-13T02:54:46;99552.91;;;10.48;100.00
58975;BME280;44751;52.236;5.178;2023-03-13T02:57:14;99545.41;;;10.57;100.00
58975;BME280;44751;52.236;5.178;2023-03-13T02:59:41;99547.06;;;10.65;100.00
58975;BME280;44751;52.236;5.178;2023-03-13T03:02:07;99545.41;;;10.64;100.00
58975;BME280;44751;52.236;5.178;2023-03-13T03:04:34;99543.31;;;10.66;100.00
58975;BME280;44751;52.236;5.178;2023-03-13T03:07:00;99549.94;;;10.70;100.00
58975;BME280;44751;52.236;5.178;2023-03-13T03:09:26;99559.81;;;10.90;100.00
58975;BME280;44751;52.236;5.178;2023-03-13T03:11:53;99555.25;;;10.97;100.00
58975;BME280;44751;52.236;5.178;2023-03-13T03:14:19;99555.78;;;11.13;100.00
58975;BME280;44751;52.236;5.178;2023-03-13T03:16:45;99549.97;;;11.16;100.00
58975;BME280;44751;52.236;5.178;2023-03-13T03:19:12;99543.91;;;11.20;100.00
58975;BME280;44751;52.236;5.178;2023-03-13T03:21:38;99544.97;;;11.19;100.00
58975;BME280;44751;52.236;5.178;2023-03-13T03:24:05;99540.72;;;11.30;100.00
58975;BME280;44751;52.236;5.178;2023-03-13T03:26:32;99533.06;;;11.34;100.00
58975;BME280;44751;52.236;5.178;2023-03-13T03:28:58;99517.81;;;11.46;100.00
58975;BME280;44751;52.236;5.178;2023-03-13T03:31:25;99525.44;;;11.56;100.00
58975;BME280;44751;52.236;5.178;2023-03-13T03:33:51;99530.94;;;11.68;100.00
58975;BME280;44751;52.236;5.178;2023-03-13T03:36:20;99513.44;;;11.71;100.00
58975;BME280;44751;52.236;5.178;2023-03-13T03:38:47;99517.00;;;11.71;100.00
58975;BME280;44751;52.236;5.178;2023-03-13T03:41:13;99506.78;;;11.73;100.00
58975;BME280;44751;52.236;5.178;2023-03-13T03:43:41;99510.91;;;11.76;100.00
58975;BME280;44751;52.236;5.178;2023-03-13T03:46:07;99506.13;;;11.78;100.00
58975;BME280;44751;52.236;5.178;2023-03-13T03:48:34;99501.16;;;11.75;100.00
58975;BME280;44751;52.236;5.178;2023-03-13T03:51:00;99494.47;;;11.78;100.00
58975;BME280;44751;52.236;5.178;2023-03-13T03:53:27;99503.81;;;11.82;100.00
58975;BME280;44751;52.236;5.178;2023-03-13T03:55:54;99497.38;;;11.83;100.00
58975;BME280;44751;52.236;5.178;2023-03-13T03:58:20;99503.09;;;11.93;100.00
58975;BME280;44751;52.236;5.178;2023-03-13T04:00:47;99488.19;;;11.84;100.00
58975;BME280;44751;52.236;5.178;2023-03-13T04:03:14;99483.03;;;11.82;100.00
58975;BME280;44751;52.236;5.178;2023-03-13T04:05:41;99486.09;;;11.86;100.00
58975;BME280;44751;52.236;5.178;2023-03-13T04:08:08;99477.63;;;11.82;100.00
58975;BME280;44751;52.236;5.178;2023-03-13T04:10:38;99480.47;;;11.87;100.00
58975;BME280;44751;52.236;5.178;2023-03-13T04:13:04;99478.81;;;11.86;100.00
58975;BME280;44751;52.236;5.178;2023-03-13T04:15:31;99479.88;;;11.85;100.00
58975;BME280;44751;52.236;5.178;2023-03-13T04:17:57;99482.38;;;11.87;100.00
58975;BME280;44751;52.236;5.178;2023-03-13T04:20:24;99473.53;;;11.98;100.00
58975;BME280;44751;52.236;5.178;2023-03-13T04:22:50;99484.72;;;12.02;100.00
58975;BME280;44751;52.236;5.178;2023-03-13T04:25:16;99459.75;;;12.07;100.00
58975;BME280;44751;52.236;5.178;2023-03-13T04:27:43;99475.97;;;12.07;100.00
58975;BME280;44751;52.236;5.178;2023-03-13T04:30:09;99470.75;;;12.05;100.00
58975;BME280;44751;52.236;5.178;2023-03-13T04:32:36;99454.53;;;12.05;100.00
58975;BME280;44751;52.236;5.178;2023-03-13T04:35:03;99449.78;;;12.00;100.00
58975;BME280;44751;52.236;5.178;2023-03-13T04:37:31;99451.06;;;11.98;100.00
58975;BME280;44751;52.236;5.178;2023-03-13T04:39:58;99460.97;;;12.11;100.00
58975;BME280;44751;52.236;5.178;2023-03-13T04:42:24;99458.19;;;12.18;100.00
58975;BME280;44751;52.236;5.178;2023-03-13T04:44:50;99452.84;;;12.11;100.00
58975;BME280;44751;52.236;5.178;2023-03-13T04:47:17;99455.09;;;12.14;100.00
58975;BME280;44751;52.236;5.178;2023-03-13T04:49:43;99459.69;;;12.13;100.00
58975;BME280;44751;52.236;5.178;2023-03-13T04:52:10;99445.72;;;12.17;100.00
58975;BME280;44751;52.236;5.178;2023-03-13T04:54:37;99437.53;;;12.23;100.00
58975;BME280;44751;52.236;5.178;2023-03-13T04:57:03;99451.19;;;12.29;100.00
58975;BME280;44751;52.236;5.178;2023-03-13T04:59:30;99446.97;;;12.33;100.00
58975;BME280;44751;52.236;5.178;2023-03-13T05:01:56;99450.31;;;12.35;100.00
58975;BME280;44751;52.236;5.178;2023-03-13T05:04:23;99447.81;;;12.33;100.00
58975;BME280;44751;52.236;5.178;2023-03-13T05:06:50;99451.63;;;12.25;100.00
58975;BME280;44751;52.236;5.178;2023-03-13T05:09:16;99442.41;;;12.33;100.00
58975;BME280;44751;52.236;5.178;2023-03-13T05:11:42;99441.34;;;12.16;100.00
58975;BME280;44751;52.236;5.178;2023-03-13T05:14:09;99421.75;;;12.39;100.00
58975;BME280;44751;52.236;5.178;2023-03-13T05:16:36;99420.56;;;12.35;100.00
58975;BME280;44751;52.236;5.178;2023-03-13T05:19:03;99437.13;;;12.57;100.00
58975;BME280;44751;52.236;5.178;2023-03-13T05:21:32;99433.47;;;12.33;100.00
58975;BME280;44751;52.236;5.178;2023-03-13T05:23:58;99426.25;;;12.45;100.00
58975;BME280;44751;52.236;5.178;2023-03-13T05:26:24;99413.47;;;12.34;100.00
58975;BME280;44751;52.236;5.178;2023-03-13T05:28:51;99421.13;;;12.37;100.00
58975;BME280;44751;52.236;5.178;2023-03-13T05:31:17;99426.03;;;12.47;100.00
58975;BME280;44751;52.236;5.178;2023-03-13T05:33:43;99400.38;;;12.49;100.00
58975;BME280;44751;52.236;5.178;2023-03-13T05:36:10;99408.28;;;12.51;100.00
58975;BME280;44751;52.236;5.178;2023-03-13T05:38:36;99409.25;;;12.57;100.00
58975;BME280;44751;52.236;5.178;2023-03-13T05:41:03;99396.78;;;12.56;100.00
58975;BME280;44751;52.236;5.178;2023-03-13T05:43:29;99401.44;;;12.48;100.00
58975;BME280;44751;52.236;5.178;2023-03-13T05:45:55;99410.53;;;12.54;100.00
58975;BME280;44751;52.236;5.178;2023-03-13T05:48:22;99407.38;;;12.57;100.00
58975;BME280;44751;52.236;5.178;2023-03-13T05:50:51;99407.59;;;12.56;100.00
58975;BME280;44751;52.236;5.178;2023-03-13T05:53:17;99401.97;;;12.57;100.00
58975;BME280;44751;52.236;5.178;2023-03-13T05:55:43;99392.34;;;12.61;100.00
58975;BME280;44751;52.236;5.178;2023-03-13T05:58:10;99394.06;;;12.56;100.00
58975;BME280;44751;52.236;5.178;2023-03-13T06:00:36;99390.00;;;12.65;100.00
58975;BME280;44751;52.236;5.178;2023-03-13T06:03:02;99380.56;;;12.56;100.00
58975;BME280;44751;52.236;5.178;2023-03-13T06:05:31;99372.56;;;12.61;100.00
58975;BME280;44751;52.236;5.178;2023-03-13T06:07:57;99376.47;;;12.65;100.00
58975;BME280;44751;52.236;5.178;2023-03-13T06:10:24;99366.00;;;12.69;100.00
58975;BME280;44751;52.236;5.178;2023-03-13T06:12:54;99374.22;;;12.62;100.00
58975;BME280;44751;52.236;5.178;2023-03-13T06:15:21;99381.84;;;12.53;100.00
58975;BME280;44751;52.236;5.178;2023-03-13T06:17:50;99364.34;;;12.68;100.00
58975;BME280;44751;52.236;5.178;2023-03-13T06:20:16;99373.53;;;12.67;100.00
58975;BME280;44751;52.236;5.178;2023-03-13T06:22:43;99383.50;;;12.66;100.00
58975;BME280;44751;52.236;5.178;2023-03-13T06:25:09;99378.94;;;12.67;100.00
58975;BME280;44751;52.236;5.178;2023-03-13T06:27:35;99380.34;;;12.69;100.00
58975;BME280;44751;52.236;5.178;2023-03-13T06:30:02;99391.22;;;12.81;100.00
58975;BME280;44751;52.236;5.178;2023-03-13T06:32:29;99394.53;;;12.95;100.00
58975;BME280;44751;52.236;5.178;2023-03-13T06:34:55;99392.13;;;13.06;100.00
58975;BME280;44751;52.236;5.178;2023-03-13T06:37:22;99381.91;;;12.77;100.00
58975;BME280;44751;52.236;5.178;2023-03-13T06:39:48;99377.97;;;12.61;100.00
58975;BME280;44751;52.236;5.178;2023-03-13T06:42:14;99390.09;;;12.58;100.00
58975;BME280;44751;52.236;5.178;2023-03-13T06:44:41;99398.34;;;12.63;100.00
58975;BME280;44751;52.236;5.178;2023-03-13T06:47:08;99409.16;;;12.63;100.00
58975;BME280;44751;52.236;5.178;2023-03-13T06:49:34;99397.59;;;12.56;100.00
58975;BME280;44751;52.236;5.178;2023-03-13T06:52:01;99396.31;;;12.59;100.00
58975;BME280;44751;52.236;5.178;2023-03-13T06:54:27;99401.22;;;12.50;100.00
58975;BME280;44751;52.236;5.178;2023-03-13T06:56:58;99398.84;;;12.42;100.00
58975;BME280;44751;52.236;5.178;2023-03-13T06:59:28;99401.16;;;12.38;100.00
58975;BME280;44751;52.236;5.178;2023-03-13T07:01:54;99403.84;;;12.38;100.00
58975;BME280;44751;52.236;5.178;2023-03-13T07:04:21;99397.69;;;12.31;100.00
58975;BME280;44751;52.236;5.178;2023-03-13T07:06:47;99413.78;;;12.25;100.00
58975;BME280;44751;52.236;5.178;2023-03-13T07:09:14;99400.97;;;12.21;100.00
58975;BME280;44751;52.236;5.178;2023-03-13T07:11:40;99406.81;;;12.18;100.00
58975;BME280;44751;52.236;5.178;2023-03-13T07:14:07;99415.06;;;12.23;100.00
58975;BME280;44751;52.236;5.178;2023-03-13T07:16:33;99398.59;;;12.06;100.00
58975;BME280;44751;52.236;5.178;2023-03-13T07:19:00;99411.16;;;12.19;100.00
58975;BME280;44751;52.236;5.178;2023-03-13T07:21:26;99419.94;;;12.33;100.00
58975;BME280;44751;52.236;5.178;2023-03-13T07:23:55;99405.31;;;12.22;100.00
58975;BME280;44751;52.236;5.178;2023-03-13T07:26:21;99404.88;;;12.25;100.00
58975;BME280;44751;52.236;5.178;2023-03-13T07:28:48;99399.91;;;12.22;100.00
58975;BME280;44751;52.236;5.178;2023-03-13T07:31:17;99420.25;;;12.24;100.00
58975;BME280;44751;52.236;5.178;2023-03-13T07:33:44;99412.22;;;12.18;100.00
58975;BME280;44751;52.236;5.178;2023-03-13T07:36:14;99418.06;;;12.14;100.00
58975;BME280;44751;52.236;5.178;2023-03-13T07:38:41;99432.03;;;12.11;100.00
58975;BME280;44751;52.236;5.178;2023-03-13T07:41:10;99426.47;;;12.06;100.00
58975;BME280;44751;52.236;5.178;2023-03-13T07:43:39;99423.56;;;12.08;100.00
58975;BME280;44751;52.236;5.178;2023-03-13T07:46:07;99417.44;;;12.12;100.00
58975;BME280;44751;52.236;5.178;2023-03-13T07:48:36;99419.50;;;12.17;100.00
58975;BME280;44751;52.236;5.178;2023-03-13T07:51:05;99421.31;;;12.23;100.00
58975;BME280;44751;52.236;5.178;2023-03-13T07:53:33;99424.81;;;12.24;100.00
58975;BME280;44751;52.236;5.178;2023-03-13T07:56:05;99433.22;;;12.16;100.00
58975;BME280;44751;52.236;5.178;2023-03-13T07:58:37;99424.22;;;12.22;100.00
58975;BME280;44751;52.236;5.178;2023-03-13T08:01:09;99424.81;;;12.24;100.00
58975;BME280;44751;52.236;5.178;2023-03-13T08:03:35;99426.53;;;12.18;100.00
58975;BME280;44751;52.236;5.178;2023-03-13T08:06:08;99411.59;;;12.34;100.00
58975;BME280;44751;52.236;5.178;2023-03-13T08:08:35;99398.19;;;12.58;100.00
58975;BME280;44751;52.236;5.178;2023-03-13T08:11:04;99395.16;;;12.67;100.00
58975;BME280;44751;52.236;5.178;2023-03-13T08:13:32;99401.44;;;12.79;100.00
58975;BME280;44751;52.236;5.178;2023-03-13T08:16:07;99398.69;;;12.98;100.00
58975;BME280;44751;52.236;5.178;2023-03-13T08:18:35;99392.22;;;12.99;100.00
58975;BME280;44751;52.236;5.178;2023-03-13T08:21:06;99392.91;;;12.94;100.00
58975;BME280;44751;52.236;5.178;2023-03-13T08:23:33;99388.81;;;13.03;100.00
58975;BME280;44751;52.236;5.178;2023-03-13T08:26:06;99380.94;;;13.02;100.00
58975;BME280;44751;52.236;5.178;2023-03-13T08:28:33;99365.25;;;13.04;100.00
58975;BME280;44751;52.236;5.178;2023-03-13T08:31:09;99369.72;;;12.86;100.00
58975;BME280;44751;52.236;5.178;2023-03-13T08:33:37;99412.78;;;12.88;100.00
58975;BME280;44751;52.236;5.178;2023-03-13T08:36:19;99368.06;;;12.85;100.00
58975;BME280;44751;52.236;5.178;2023-03-13T08:38:48;99367.22;;;12.85;100.00
58975;BME280;44751;52.236;5.178;2023-03-13T08:41:19;99377.38;;;12.89;100.00
58975;BME280;44751;52.236;5.178;2023-03-13T08:43:46;99374.75;;;12.83;100.00
58975;BME280;44751;52.236;5.178;2023-03-13T08:46:14;99365.44;;;12.78;100.00
58975;BME280;44751;52.236;5.178;2023-03-13T08:48:40;99367.44;;;12.71;100.00
58975;BME280;44751;52.236;5.178;2023-03-13T08:51:13;99373.31;;;12.68;100.00
58975;BME280;44751;52.236;5.178;2023-03-13T08:53:41;99359.63;;;12.63;100.00
58975;BME280;44751;52.236;5.178;2023-03-13T08:56:10;99359.38;;;12.64;100.00
58975;BME280;44751;52.236;5.178;2023-03-13T08:58:37;99368.28;;;12.84;100.00
58975;BME280;44751;52.236;5.178;2023-03-13T09:01:08;99360.41;;;12.94;100.00
58975;BME280;44751;52.236;5.178;2023-03-13T09:03:35;99367.88;;;13.11;100.00
58975;BME280;44751;52.236;5.178;2023-03-13T09:06:03;99366.59;;;13.37;100.00
58975;BME280;44751;52.236;5.178;2023-03-13T09:08:30;99351.50;;;14.01;100.00
58975;BME280;44751;52.236;5.178;2023-03-13T09:11:03;99345.47;;;14.11;100.00
58975;BME280;44751;52.236;5.178;2023-03-13T09:13:33;99371.69;;;13.81;100.00
58975;BME280;44751;52.236;5.178;2023-03-13T09:16:08;99324.06;;;13.74;100.00
58975;BME280;44751;52.236;5.178;2023-03-13T09:18:35;99335.88;;;13.67;100.00
58975;BME280;44751;52.236;5.178;2023-03-13T09:21:05;99327.63;;;13.74;100.00
58975;BME280;44751;52.236;5.178;2023-03-13T09:23:32;99333.44;;;13.54;100.00
58975;BME280;44751;52.236;5.178;2023-03-13T09:25:58;99328.56;;;13.44;100.00
58975;BME280;44751;52.236;5.178;2023-03-13T09:28:25;99314.22;;;13.55;100.00
58975;BME280;44751;52.236;5.178;2023-03-13T09:30:53;99323.50;;;13.60;100.00
58975;BME280;44751;52.236;5.178;2023-03-13T09:33:20;99312.75;;;13.77;100.00
58975;BME280;44751;52.236;5.178;2023-03-13T09:35:48;99306.91;;;13.68;100.00
58975;BME280;44751;52.236;5.178;2023-03-13T09:38:20;99311.97;;;13.64;100.00
58975;BME280;44751;52.236;5.178;2023-03-13T09:40:49;99292.72;;;13.78;100.00
58975;BME280;44751;52.236;5.178;2023-03-13T09:44:21;99300.75;;;13.85;100.00
58975;BME280;44751;52.236;5.178;2023-03-13T09:46:48;99281.69;;;14.09;100.00
58975;BME280;44751;52.236;5.178;2023-03-13T09:49:34;99267.88;;;14.39;100.00
58975;BME280;44751;52.236;5.178;2023-03-13T09:54:58;99264.56;;;14.83;100.00
58975;BME280;44751;52.236;5.178;2023-03-13T09:57:52;99271.31;;;14.81;100.00
58975;BME280;44751;52.236;5.178;2023-03-13T10:00:25;99266.72;;;14.52;100.00
58975;BME280;44751;52.236;5.178;2023-03-13T10:03:02;99249.31;;;14.65;100.00
58975;BME280;44751;52.236;5.178;2023-03-13T10:05:31;99251.47;;;14.63;100.00
58975;BME280;44751;52.236;5.178;2023-03-13T10:08:13;99240.63;;;14.80;100.00
58975;BME280;44751;52.236;5.178;2023-03-13T10:13:38;99235.84;;;15.05;100.00
58975;BME280;44751;52.236;5.178;2023-03-13T10:16:11;99253.38;;;14.80;100.00
58975;BME280;44751;52.236;5.178;2023-03-13T10:18:44;99249.91;;;15.02;100.00
58975;BME280;44751;52.236;5.178;2023-03-13T10:21:17;99244.09;;;15.32;100.00
58975;BME280;44751;52.236;5.178;2023-03-13T10:26:36;99234.78;;;15.28;100.00
58975;BME280;44751;52.236;5.178;2023-03-13T10:29:28;99237.97;;;15.42;100.00
58975;BME280;44751;52.236;5.178;2023-03-13T10:31:58;99232.94;;;15.51;100.00
58975;BME280;44751;52.236;5.178;2023-03-13T10:34:27;99229.72;;;15.54;100.00
58975;BME280;44751;52.236;5.178;2023-03-13T10:36:57;99232.78;;;15.63;100.00
58975;BME280;44751;52.236;5.178;2023-03-13T10:39:26;99223.84;;;15.62;100.00
58975;BME280;44751;52.236;5.178;2023-03-13T10:42:08;99231.19;;;16.12;100.00
58975;BME280;44751;52.236;5.178;2023-03-13T10:44:35;99243.22;;;15.94;100.00
58975;BME280;44751;52.236;5.178;2023-03-13T10:47:02;99244.81;;;16.39;100.00
58975;BME280;44751;52.236;5.178;2023-03-13T10:49:30;99239.94;;;15.69;100.00
58975;BME280;44751;52.236;5.178;2023-03-13T10:52:02;99224.88;;;15.39;100.00
58975;BME280;44751;52.236;5.178;2023-03-13T10:54:33;99254.25;;;15.59;100.00
58975;BME280;44751;52.236;5.178;2023-03-13T10:59:46;99209.13;;;16.08;100.00
58975;BME280;44751;52.236;5.178;2023-03-13T11:02:26;99196.63;;;16.40;100.00
58975;BME280;44751;52.236;5.178;2023-03-13T11:04:55;99224.63;;;16.35;100.00
58975;BME280;44751;52.236;5.178;2023-03-13T11:07:34;99221.00;;;16.57;100.00
58975;BME280;44751;52.236;5.178;2023-03-13T11:12:32;99238.66;;;16.55;100.00
58975;BME280;44751;52.236;5.178;2023-03-13T11:15:00;99224.78;;;16.23;100.00
58975;BME280;44751;52.236;5.178;2023-03-13T11:17:51;99194.81;;;16.18;100.00
58975;BME280;44751;52.236;5.178;2023-03-13T11:20:26;99217.44;;;15.96;100.00
58975;BME280;44751;52.236;5.178;2023-03-13T11:23:10;99195.78;;;16.07;100.00
58975;BME280;44751;52.236;5.178;2023-03-13T11:26:11;99225.88;;;15.95;100.00
58975;BME280;44751;52.236;5.178;2023-03-13T11:28:51;99203.19;;;15.89;100.00
58975;BME280;44751;52.236;5.178;2023-03-13T11:31:43;99195.53;;;15.86;100.00
58975;BME280;44751;52.236;5.178;2023-03-13T11:34:23;99198.88;;;15.93;100.00
58975;BME280;44751;52.236;5.178;2023-03-13T11:36:59;99214.97;;;16.22;100.00
58975;BME280;44751;52.236;5.178;2023-03-13T11:42:48;99207.78;;;16.76;100.00
58975;BME280;44751;52.236;5.178;2023-03-13T11:50:57;99220.31;;;17.69;100.00
58975;BME280;44751;52.236;5.178;2023-03-13T12:01:58;99214.78;;;16.02;100.00
58975;BME280;44751;52.236;5.178;2023-03-13T12:04:32;99198.88;;;16.48;100.00
58975;BME280;44751;52.236;5.178;2023-03-13T12:07:22;99204.16;;;17.03;100.00
58975;BME280;44751;52.236;5.178;2023-03-13T12:09:57;99204.78;;;17.11;100.00
58975;BME280;44751;52.236;5.178;2023-03-13T12:12:52;99223.69;;;16.90;100.00
58975;BME280;44751;52.236;5.178;2023-03-13T12:15:36;99186.09;;;16.87;100.00
58975;BME280;44751;52.236;5.178;2023-03-13T12:18:21;99197.81;;;16.87;100.00
58975;BME280;44751;52.236;5.178;2023-03-13T12:23:31;99177.06;;;16.81;100.00
58975;BME280;44751;52.236;5.178;2023-03-13T12:26:04;99185.31;;;16.91;100.00
58975;BME280;44751;52.236;5.178;2023-03-13T12:28:40;99178.16;;;16.80;100.00
58975;BME280;44751;52.236;5.178;2023-03-13T12:31:19;99180.19;;;16.62;100.00
58975;BME280;44751;52.236;5.178;2023-03-13T12:34:16;99179.13;;;16.31;100.00
58975;BME280;44751;52.236;5.178;2023-03-13T12:36:52;99167.44;;;16.68;100.00
58975;BME280;44751;52.236;5.178;2023-03-13T12:42:26;99145.09;;;16.28;100.00
58975;BME280;44751;52.236;5.178;2023-03-13T12:44:57;99180.25;;;16.35;100.00
58975;BME280;44751;52.236;5.178;2023-03-13T12:47:30;99188.19;;;16.42;100.00
58975;BME280;44751;52.236;5.178;2023-03-13T12:52:53;99157.88;;;15.72;100.00
58975;BME280;44751;52.236;5.178;2023-03-13T12:55:56;99170.44;;;16.01;100.00
58975;BME280;44751;52.236;5.178;2023-03-13T12:58:37;99140.75;;;15.99;100.00
58975;BME280;44751;52.236;5.178;2023-03-13T13:01:05;99134.34;;;16.11;100.00
58975;BME280;44751;52.236;5.178;2023-03-13T13:03:36;99135.16;;;16.11;100.00
58975;BME280;44751;52.236;5.178;2023-03-13T13:06:11;99126.03;;;16.28;100.00
58975;BME280;44751;52.236;5.178;2023-03-13T13:09:02;99135.34;;;16.32;100.00
58975;BME280;44751;52.236;5.178;2023-03-13T13:16:59;99113.63;;;16.05;100.00
58975;BME280;44751;52.236;5.178;2023-03-13T13:32:52;99114.53;;;16.16;100.00
58975;BME280;44751;52.236;5.178;2023-03-13T13:43:44;99109.16;;;16.26;100.00
58975;BME280;44751;52.236;5.178;2023-03-13T13:46:31;99121.84;;;16.48;100.00
58975;BME280;44751;52.236;5.178;2023-03-13T13:51:37;99152.56;;;16.43;100.00
58975;BME280;44751;52.236;5.178;2023-03-13T13:54:29;99119.75;;;16.65;97.19
58975;BME280;44751;52.236;5.178;2023-03-13T13:56:58;99154.13;;;16.34;96.77
58975;BME280;44751;52.236;5.178;2023-03-13T13:59:39;99139.63;;;16.23;95.22
58975;BME280;44751;52.236;5.178;2023-03-13T14:02:22;99116.66;;;16.13;97.97
58975;BME280;44751;52.236;5.178;2023-03-13T14:04:59;99126.81;;;16.23;96.78
58975;BME280;44751;52.236;5.178;2023-03-13T14:12:37;99113.88;;;16.03;98.58
58975;BME280;44751;52.236;5.178;2023-03-13T14:15:15;99112.50;;;16.00;98.55
58975;BME280;44751;52.236;5.178;2023-03-13T14:17:48;99111.13;;;15.98;97.46
58975;BME280;44751;52.236;5.178;2023-03-13T14:22:57;99103.88;;;16.09;99.94
58975;BME280;44751;52.236;5.178;2023-03-13T14:25:24;99094.59;;;16.05;100.00
58975;BME280;44751;52.236;5.178;2023-03-13T14:27:53;99091.81;;;15.72;99.51
58975;BME280;44751;52.236;5.178;2023-03-13T14:30:20;99091.44;;;15.63;100.00